Time;durP1;ratioP1;P1;durP2;ratioP2;P2;SDS_P1;SDS_P2;PMS_P1;PMS_P2;Temp;Humidity;BMP_temperature;BMP_pressure;BME280_temperature;BME280_humidity;BME280_pressure;Samples;Min_cycle;Max_cycle;Signal;HPM_P1;HPM_P2
2023/01/27 00:00:40;;;;;;;4.38;0.90;;;;;;;2.74;100.00;102495.72;5019019;28;20535;-45
2023/01/27 00:03:05;;;;;;;3.22;0.80;;;;;;;2.72;100.00;102494.78;5021449;28;20242;-40
2023/01/27 00:05:31;;;;;;;5.30;1.23;;;;;;;2.65;100.00;102491.13;5012592;28;20271;-40
2023/01/27 00:07:57;;;;;;;2.17;1.00;;;;;;;2.63;100.00;102490.19;5020273;28;20748;-38
2023/01/27 00:10:23;;;;;;;3.53;1.20;;;;;;;2.61;100.00;102497.22;5024640;28;20324;-42
2023/01/27 00:15:33;;;;;;;6.95;1.60;;;;;;;2.57;100.00;102490.06;5020674;28;20258;-42
2023/01/27 00:17:59;;;;;;;8.82;2.03;;;;;;;2.57;100.00;102496.25;5020553;28;21026;-39
2023/01/27 00:26:05;;;;;;;6.47;1.83;;;;;;;2.56;100.00;102506.78;5014507;28;20193;-39
2023/01/27 00:28:31;;;;;;;7.38;2.30;;;;;;;2.57;100.00;102492.72;5016879;28;20199;-39
2023/01/27 00:30:58;;;;;;;8.30;2.30;;;;;;;2.61;100.00;102506.03;5012836;28;20176;-43
2023/01/27 00:33:23;;;;;;;4.47;1.35;;;;;;;2.60;100.00;102509.56;5011249;28;20188;-40
2023/01/27 00:35:49;;;;;;;2.97;1.67;;;;;;;2.60;100.00;102503.34;5008572;28;20187;-40
2023/01/27 00:38:15;;;;;;;8.27;1.95;;;;;;;2.64;100.00;102508.75;5008143;28;20201;-43
2023/01/27 00:41:14;;;;;;;5.72;1.55;;;;;;;2.61;100.00;102518.38;5010140;28;20212;-40
2023/01/27 00:43:26;;;;;;;3.95;1.50;;;;;;;2.63;100.00;102521.97;5011315;28;20207;-38
2023/01/27 00:45:52;;;;;;;5.80;1.33;;;;;;;2.62;100.00;102529.00;5029220;28;20180;-40
2023/01/27 00:48:17;;;;;;;7.55;2.13;;;;;;;2.63;100.00;102535.19;5017361;28;20257;-43
2023/01/27 00:50:43;;;;;;;4.45;1.67;;;;;;;2.64;100.00;102527.25;5019793;28;20530;-42
2023/01/27 00:53:09;;;;;;;5.68;1.30;;;;;;;2.64;100.00;102523.72;5014522;28;20323;-39
2023/01/27 00:55:34;;;;;;;2.08;1.33;;;;;;;2.62;100.00;102525.44;5040013;28;20176;-38
2023/01/27 00:58:00;;;;;;;4.13;1.48;;;;;;;2.62;100.00;102528.09;5019949;28;20295;-39
2023/01/27 01:00:25;;;;;;;3.53;1.25;;;;;;;2.63;100.00;102537.84;5010128;28;20666;-41
2023/01/27 01:02:51;;;;;;;2.83;1.10;;;;;;;2.63;100.00;102528.13;5021059;28;20190;-40
2023/01/27 01:05:16;;;;;;;5.90;1.40;;;;;;;2.64;100.00;102523.72;5015825;28;20183;-40
2023/01/27 01:07:42;;;;;;;3.33;1.25;;;;;;;2.63;100.00;102521.97;5019274;28;20588;-44
2023/01/27 01:10:08;;;;;;;6.30;1.42;;;;;;;2.58;100.00;102521.84;5018830;28;20238;-42
2023/01/27 01:12:34;;;;;;;6.57;1.10;;;;;;;2.57;100.00;102527.09;5015327;28;20184;-39
2023/01/27 01:14:59;;;;;;;4.63;1.33;;;;;;;2.54;100.00;102527.06;5015647;28;20187;-40
2023/01/27 01:17:25;;;;;;;4.80;1.08;;;;;;;2.52;100.00;102527.00;5010717;28;20612;-44
2023/01/27 01:19:50;;;;;;;5.75;1.13;;;;;;;2.48;100.00;102528.69;5009353;28;20172;-42
2023/01/27 01:22:16;;;;;;;5.68;1.10;;;;;;;2.52;100.00;102540.25;5009625;28;20325;-40
2023/01/27 01:24:41;;;;;;;3.40;1.10;;;;;;;2.52;100.00;102549.94;5007621;28;20231;-43
2023/01/27 01:27:07;;;;;;;2.92;1.10;;;;;;;2.50;100.00;102549.88;5010883;28;20567;-43
2023/01/27 01:29:32;;;;;;;5.65;1.25;;;;;;;2.51;100.00;102541.06;5010528;28;20184;-43
2023/01/27 01:31:58;;;;;;;6.10;1.13;;;;;;;2.49;100.00;102545.44;5014262;28;20200;-45
2023/01/27 01:34:23;;;;;;;4.47;1.42;;;;;;;2.55;100.00;102550.00;5018612;28;20180;-45
2023/01/27 01:36:49;;;;;;;3.15;1.20;;;;;;;2.54;100.00;102548.22;5020034;28;20627;-44
2023/01/27 01:39:14;;;;;;;3.90;1.50;;;;;;;2.52;100.00;102556.13;5013553;28;20179;-43
2023/01/27 01:41:40;;;;;;;3.85;1.25;;;;;;;2.53;100.00;102568.47;5019508;28;20230;-44
2023/01/27 01:44:21;;;;;;;8.10;1.65;;;;;;;2.52;100.00;102565.81;5021075;28;20230;-43
2023/01/27 01:46:47;;;;;;;3.13;1.33;;;;;;;2.53;100.00;102567.59;5010592;28;20633;-44
2023/01/27 01:49:14;;;;;;;5.40;1.60;;;;;;;2.54;100.00;102570.28;5019981;28;20271;-44
2023/01/27 01:51:43;;;;;;;3.28;1.23;;;;;;;2.55;100.00;102571.16;5011362;28;20169;-43
2023/01/27 01:54:15;;;;;;;8.40;1.55;;;;;;;2.58;100.00;102581.81;5018565;28;20190;-44
2023/01/27 01:56:46;;;;;;;2.92;1.27;;;;;;;2.55;100.00;102581.75;5020018;28;20222;-44
2023/01/27 01:59:21;;;;;;;3.42;1.40;;;;;;;2.54;100.00;102569.38;4999856;28;20215;-43
2023/01/27 02:01:47;;;;;;;2.40;1.75;;;;;;;2.56;100.00;102568.56;5014233;28;20634;-43
2023/01/27 02:04:22;;;;;;;5.22;1.73;;;;;;;2.58;100.00;102576.50;5019006;28;20216;-44
2023/01/27 02:06:55;;;;;;;7.03;1.45;;;;;;;2.60;100.00;102575.72;5015891;28;20191;-43
2023/01/27 02:09:22;;;;;;;4.20;1.60;;;;;;;2.58;100.00;102579.16;5010316;28;20191;-42
2023/01/27 02:11:48;;;;;;;3.83;1.55;;;;;;;2.59;100.00;102587.13;5000038;28;20173;-42
2023/01/27 02:14:16;;;;;;;4.47;1.50;;;;;;;2.61;100.00;102587.19;4997776;28;20268;-43
2023/01/27 02:16:42;;;;;;;5.88;1.67;;;;;;;2.57;100.00;102585.31;5014034;28;20637;-42
2023/01/27 02:19:13;;;;;;;4.18;1.25;;;;;;;2.57;100.00;102590.59;5002386;28;20230;-43
2023/01/27 02:21:39;;;;;;;8.00;1.60;;;;;;;2.57;100.00;102588.84;5019432;28;20228;-44
2023/01/27 02:24:09;;;;;;;3.90;1.75;;;;;;;2.57;100.00;102585.31;5020145;28;20601;-42
2023/01/27 02:26:41;;;;;;;3.50;1.17;;;;;;;2.56;100.00;102599.38;5016521;28;21011;-45
2023/01/27 02:29:12;;;;;;;3.88;1.20;;;;;;;2.56;100.00;102591.44;5025540;28;20660;-41
2023/01/27 02:31:38;;;;;;;3.60;1.20;;;;;;;2.50;100.00;102600.16;5019263;28;20267;-43
2023/01/27 02:34:08;;;;;;;5.60;1.42;;;;;;;2.48;100.00;102601.88;5016073;28;20271;-45
2023/01/27 02:36:40;;;;;;;5.30;1.48;;;;;;;2.46;100.00;102599.19;5009298;28;20257;-44
2023/01/27 02:39:09;;;;;;;4.38;1.15;;;;;;;2.47;100.00;102594.78;5014477;28;20204;-43
2023/01/27 02:41:43;;;;;;;2.00;1.33;;;;;;;2.42;100.00;102599.97;5020923;28;20257;-45
2023/01/27 02:44:10;;;;;;;3.67;1.70;;;;;;;2.42;100.00;102599.06;5015019;28;20180;-43
2023/01/27 02:46:37;;;;;;;6.68;1.20;;;;;;;2.43;100.00;102599.13;5014964;28;20203;-43
2023/01/27 02:49:03;;;;;;;3.80;1.73;;;;;;;2.43;100.00;102609.69;5014565;28;20263;-44
2023/01/27 02:51:29;;;;;;;3.15;1.30;;;;;;;2.43;100.00;102614.09;5012984;28;20480;-44
2023/01/27 02:53:54;;;;;;;5.00;1.38;;;;;;;2.42;100.00;102602.59;5011342;28;20189;-44
2023/01/27 02:56:21;;;;;;;1.30;1.15;;;;;;;2.41;100.00;102608.78;5009323;28;20573;-43
2023/01/27 02:58:47;;;;;;;3.47;1.10;;;;;;;2.39;100.00;102613.13;5009470;28;20672;-42
2023/01/27 03:01:16;;;;;;;4.15;1.10;;;;;;;2.35;100.00;102610.38;5010501;28;20200;-45
2023/01/27 03:03:46;;;;;;;1.90;1.10;;;;;;;2.36;100.00;102612.16;5014800;28;20181;-44
2023/01/27 03:06:13;;;;;;;4.40;1.52;;;;;;;2.34;100.00;102616.50;5014361;28;20615;-45
2023/01/27 03:08:39;;;;;;;7.32;1.50;;;;;;;2.33;100.00;102614.72;5020627;28;20690;-43
2023/01/27 03:11:05;;;;;;;2.92;1.10;;;;;;;2.25;100.00;102622.47;5015117;28;20181;-43
2023/01/27 03:13:30;;;;;;;6.75;1.30;;;;;;;2.22;100.00;102625.03;5016151;28;20614;-44
2023/01/27 03:18:48;;;;;;;1.92;1.27;;;;;;;2.19;100.00;102630.25;5013783;28;20648;-43
2023/01/27 03:21:16;;;;;;;4.35;1.08;;;;;;;2.20;100.00;102639.97;5010916;28;20227;-42
2023/01/27 03:23:44;;;;;;;2.20;1.13;;;;;;;2.24;100.00;102625.97;5021757;28;20211;-43
2023/01/27 03:26:10;;;;;;;2.40;0.95;;;;;;;2.29;100.00;102636.66;5014751;28;20184;-41
2023/01/27 03:28:39;;;;;;;3.00;1.10;;;;;;;2.26;100.00;102635.72;5022510;28;20259;-45
2023/01/27 03:31:20;;;;;;;2.05;0.93;;;;;;;2.28;100.00;102637.53;5017776;28;20185;-43
2023/01/27 03:33:57;;;;;;;2.35;1.00;;;;;;;2.27;100.00;102633.97;5016796;28;20183;-41
2023/01/27 03:47:23;;;;;;;2.85;1.30;;;;;;;2.24;100.00;102647.13;5005642;28;20193;-44
2023/01/27 03:49:49;;;;;;;3.40;1.23;;;;;;;2.25;100.00;102648.91;5010411;28;20181;-43
2023/01/27 03:52:14;;;;;;;1.58;1.10;;;;;;;2.23;100.00;102642.69;5015585;28;20171;-42
2023/01/27 03:54:39;;;;;;;2.78;1.17;;;;;;;2.26;100.00;102658.66;5017961;28;20222;-44
2023/01/27 03:57:06;;;;;;;2.55;1.30;;;;;;;2.27;100.00;102655.13;5020782;28;20798;-43
2023/01/27 03:59:33;;;;;;;3.42;1.20;;;;;;;2.26;100.00;102640.13;5022599;28;20246;-41
2023/01/27 04:07:28;;;;;;;2.95;1.02;;;;;;;2.36;100.00;102659.75;4998846;28;20723;-43
2023/01/27 04:09:54;;;;;;;2.50;1.20;;;;;;;2.36;100.00;102647.44;5011047;28;20632;-44
2023/01/27 04:12:20;;;;;;;2.60;0.77;;;;;;;2.30;100.00;102646.41;5022312;28;20279;-44
2023/01/27 04:14:45;;;;;;;2.65;1.00;;;;;;;2.32;100.00;102657.88;5020569;28;20274;-45
2023/01/27 04:17:13;;;;;;;2.90;0.93;;;;;;;2.31;100.00;102645.53;5017384;28;20204;-43
2023/01/27 04:19:40;;;;;;;2.55;0.77;;;;;;;2.31;100.00;102646.41;5012851;28;20581;-42
2023/01/27 04:22:06;;;;;;;2.78;0.95;;;;;;;2.33;100.00;102652.66;5013594;28;20223;-46
2023/01/27 04:24:32;;;;;;;1.10;0.93;;;;;;;2.32;100.00;102661.44;5012828;28;20220;-43
2023/01/27 04:27:05;;;;;;;3.47;1.13;;;;;;;2.30;100.00;102665.81;5009688;28;20603;-44
2023/01/27 04:29:34;;;;;;;4.50;1.70;;;;;;;2.32;100.00;102660.53;5006880;28;20817;-45
2023/01/27 04:31:59;;;;;;;4.53;1.58;;;;;;;2.31;100.00;102667.59;5005012;28;20264;-42
2023/01/27 04:34:26;;;;;;;2.03;1.20;;;;;;;2.32;100.00;102661.44;5010625;28;20259;-46
2023/01/27 04:36:53;;;;;;;4.68;1.42;;;;;;;2.34;100.00;102650.88;5013278;28;20240;-44
2023/01/27 04:39:18;;;;;;;2.00;1.40;;;;;;;2.33;100.00;102671.16;5011222;28;20216;-43
2023/01/27 04:41:44;;;;;;;2.22;1.20;;;;;;;2.32;100.00;102660.53;5015521;28;20233;-42
2023/01/27 04:44:10;;;;;;;4.57;1.10;;;;;;;2.29;100.00;102648.13;5016114;28;20939;-44
2023/01/27 04:46:37;;;;;;;2.40;1.10;;;;;;;2.30;100.00;102649.94;5012888;28;20213;-41
2023/01/27 04:49:03;;;;;;;0.90;0.90;;;;;;;2.28;100.00;102645.47;5022910;28;20259;-44
2023/01/27 04:51:28;;;;;;;1.85;1.08;;;;;;;2.29;100.00;102652.53;5008896;28;20542;-43
2023/01/27 04:53:54;;;;;;;5.53;2.10;;;;;;;2.25;100.00;102647.19;4996912;28;20205;-44
2023/01/27 04:56:28;;;;;;;3.90;1.65;;;;;;;2.36;100.00;102647.44;5008203;28;20699;-43
2023/01/27 04:58:58;;;;;;;3.83;2.20;;;;;;;2.29;100.00;102652.53;5012435;28;20252;-45
2023/01/27 05:01:23;;;;;;;2.92;0.75;;;;;;;2.34;100.00;102646.50;5019133;28;20208;-45
2023/01/27 05:03:49;;;;;;;0.98;0.90;;;;;;;2.28;100.00;102651.66;5015198;28;20184;-42
2023/01/27 05:06:14;;;;;;;1.02;1.00;;;;;;;2.31;100.00;102659.66;5009707;28;20540;-40
2023/01/27 05:08:40;;;;;;;0.80;0.80;;;;;;;2.28;100.00;102658.69;5031354;28;20172;-43
2023/01/27 05:11:06;;;;;;;3.38;1.02;;;;;;;2.27;100.00;102657.78;5027369;28;20171;-42
2023/01/27 05:13:32;;;;;;;3.08;1.00;;;;;;;2.23;100.00;102655.91;5001646;28;20180;-40
2023/01/27 05:16:07;;;;;;;1.92;0.95;;;;;;;2.26;100.00;102667.47;4993057;28;20535;-39
2023/01/27 05:18:35;;;;;;;1.65;1.35;;;;;;;2.22;100.00;102686.75;4992679;22;20229;-43
2023/01/27 05:21:03;;;;;;;0.77;0.77;;;;;;;2.20;100.00;102674.34;4999354;28;20240;-45
2023/01/27 05:23:35;;;;;;;0.80;0.80;;;;;;;2.20;100.00;102664.66;4987010;28;20181;-42
2023/01/27 05:26:21;;;;;;;1.27;0.88;;;;;;;2.21;100.00;102665.56;4999815;28;20188;-42
2023/01/27 05:28:48;;;;;;;1.33;0.80;;;;;;;2.19;100.00;102669.94;5000587;28;20547;-42
2023/01/27 05:31:22;;;;;;;1.38;0.80;;;;;;;2.18;100.00;102670.75;4999066;28;20681;-40
2023/01/27 05:33:51;;;;;;;6.03;1.48;;;;;;;2.16;100.00;102675.13;4993835;28;20176;-40
2023/01/27 05:36:18;;;;;;;1.23;0.80;;;;;;;2.14;100.00;102675.06;5001684;28;20235;-42
2023/01/27 05:38:44;;;;;;;0.73;0.70;;;;;;;2.12;100.00;102676.81;4997039;28;20177;-43
2023/01/27 05:41:12;;;;;;;1.20;0.70;;;;;;;2.09;100.00;102687.28;4999465;28;20628;-41
2023/01/27 05:43:40;;;;;;;0.80;0.60;;;;;;;2.11;100.00;102676.75;4991826;28;20184;-42
2023/01/27 05:46:13;;;;;;;2.28;0.60;;;;;;;2.11;100.00;102682.94;5003515;28;20184;-44
2023/01/27 05:48:45;;;;;;;1.13;0.50;;;;;;;2.10;100.00;102689.09;5002496;28;20220;-42
2023/01/27 05:51:11;;;;;;;1.02;0.60;;;;;;;2.11;100.00;102698.78;5002828;28;20190;-43
2023/01/27 05:53:37;;;;;;;1.25;0.80;;;;;;;2.05;100.00;102688.94;4995964;28;20195;-42
2023/01/27 05:56:04;;;;;;;0.90;0.90;;;;;;;2.05;100.00;102688.94;5005660;28;20176;-40
2023/01/27 05:58:30;;;;;;;1.17;1.00;;;;;;;2.06;100.00;102689.84;4998538;28;20605;-42
2023/01/27 06:00:56;;;;;;;1.25;0.98;;;;;;;2.02;100.00;102694.16;5004903;28;20666;-43
2023/01/27 06:03:22;;;;;;;1.80;1.30;;;;;;;2.07;100.00;102710.13;4998598;28;20243;-44
2023/01/27 06:05:57;;;;;;;2.33;1.10;;;;;;;1.99;100.00;102696.72;5002690;28;20203;-42
2023/01/27 06:08:24;;;;;;;1.20;0.80;;;;;;;1.98;100.00;102708.13;4999388;28;20193;-43
2023/01/27 06:10:51;;;;;;;0.63;0.63;;;;;;;1.95;100.00;102723.94;4995554;28;20647;-45
2023/01/27 06:13:17;;;;;;;0.70;0.65;;;;;;;1.93;100.00;102724.75;4998319;28;20541;-43
2023/01/27 06:15:45;;;;;;;0.85;0.65;;;;;;;1.89;100.00;102723.75;4999482;28;20889;-45
2023/01/27 06:18:11;;;;;;;0.90;0.60;;;;;;;1.89;100.00;102713.19;4996444;28;20214;-42
2023/01/27 06:20:38;;;;;;;1.90;0.60;;;;;;;1.86;100.00;102728.97;5001757;28;20647;-43
2023/01/27 06:23:04;;;;;;;2.17;0.73;;;;;;;1.87;100.00;102732.50;5001541;28;20185;-41
2023/01/27 06:25:30;;;;;;;1.20;0.70;;;;;;;1.90;100.00;102736.09;4994804;28;20587;-43
2023/01/27 06:27:56;;;;;;;0.60;0.60;;;;;;;1.86;100.00;102736.91;5004777;28;20193;-43
2023/01/27 06:30:23;;;;;;;1.55;0.70;;;;;;;1.82;100.00;102732.38;5000071;28;20189;-42
2023/01/27 06:32:48;;;;;;;0.70;0.70;;;;;;;1.79;100.00;102735.81;4994484;28;20177;-41
2023/01/27 06:35:14;;;;;;;1.50;0.60;;;;;;;1.77;100.00;102732.25;5001841;28;20196;-40
2023/01/27 06:37:40;;;;;;;1.98;0.80;;;;;;;1.72;100.00;102733.84;4999980;28;20204;-44
2023/01/27 06:40:05;;;;;;;0.75;0.70;;;;;;;1.79;100.00;102742.84;4994639;28;20207;-43
2023/01/27 06:42:34;;;;;;;0.50;0.50;;;;;;;1.75;100.00;102748.88;4998428;28;20590;-43
2023/01/27 06:44:59;;;;;;;0.70;0.70;;;;;;;1.76;100.00;102755.97;4996370;28;20169;-44
2023/01/27 06:47:25;;;;;;;0.60;0.60;;;;;;;1.73;100.00;102750.56;5002508;28;20204;-40
2023/01/27 06:49:50;;;;;;;0.68;0.65;;;;;;;1.73;100.00;102750.56;5006356;28;20243;-42
2023/01/27 06:52:16;;;;;;;1.00;0.80;;;;;;;1.78;100.00;102751.63;5000516;28;20648;-43
2023/01/27 06:54:41;;;;;;;2.38;0.70;;;;;;;1.74;100.00;102755.91;5001466;28;20196;-42
2023/01/27 06:57:09;;;;;;;1.85;0.80;;;;;;;1.77;100.00;102758.66;5004022;28;20203;-41
2023/01/27 06:59:35;;;;;;;1.35;0.85;;;;;;;1.82;100.00;102750.88;5001727;28;20284;-44
2023/01/27 07:02:00;;;;;;;0.70;0.70;;;;;;;1.82;100.00;102751.75;5003805;28;20284;-42
2023/01/27 07:04:26;;;;;;;1.20;0.90;;;;;;;1.88;100.00;102750.13;5000106;28;20213;-45
2023/01/27 07:06:51;;;;;;;0.82;0.70;;;;;;;1.83;100.00;102750.00;4996909;28;20209;-43
2023/01/27 07:09:17;;;;;;;1.25;0.80;;;;;;;1.81;100.00;102749.94;5004905;28;20168;-43
2023/01/27 07:11:43;;;;;;;1.58;0.55;;;;;;;1.84;100.00;102752.69;5001626;28;20578;-43
2023/01/27 07:14:09;;;;;;;1.33;0.60;;;;;;;1.86;100.00;102768.63;4994868;28;20190;-43
2023/01/27 07:16:34;;;;;;;2.85;0.80;;;;;;;1.83;100.00;102776.44;5002206;28;20200;-42
2023/01/27 07:19:00;;;;;;;0.65;0.65;;;;;;;1.84;100.00;102772.97;4998212;28;20693;-42
2023/01/27 07:21:25;;;;;;;0.95;0.63;;;;;;;1.85;100.00;102765.03;4999569;28;20687;-42
2023/01/27 07:23:51;;;;;;;2.42;1.20;;;;;;;1.83;100.00;102774.69;5001593;28;20220;-45
2023/01/27 07:26:16;;;;;;;0.75;0.47;;;;;;;1.83;100.00;102773.78;4998479;28;20177;-43
2023/01/27 07:28:42;;;;;;;0.50;0.40;;;;;;;1.84;100.00;102776.50;5005189;28;20632;-41
2023/01/27 07:31:07;;;;;;;0.57;0.57;;;;;;;1.89;100.00;102778.38;4998151;28;20165;-44
2023/01/27 07:33:33;;;;;;;0.70;0.60;;;;;;;1.82;100.00;102787.88;5002433;28;20342;-42
2023/01/27 07:35:58;;;;;;;2.17;0.80;;;;;;;1.84;100.00;102783.53;5004896;28;20260;-44
2023/01/27 07:38:24;;;;;;;1.63;0.70;;;;;;;1.83;100.00;102779.06;5001851;28;20193;-42
2023/01/27 07:40:49;;;;;;;2.45;0.70;;;;;;;1.82;100.00;102783.47;5001063;28;20310;-40
2023/01/27 07:43:15;;;;;;;1.25;0.57;;;;;;;1.84;100.00;102791.47;4999768;28;20203;-42
2023/01/27 07:45:40;;;;;;;0.73;0.60;;;;;;;1.84;100.00;102791.47;5007688;28;20183;-45
2023/01/27 07:48:07;;;;;;;1.67;1.02;;;;;;;1.83;100.00;102795.81;5000408;28;20208;-43
2023/01/27 07:50:34;;;;;;;2.45;0.80;;;;;;;1.83;100.00;102810.78;5002876;28;20184;-41
2023/01/27 07:53:02;;;;;;;0.50;0.50;;;;;;;1.79;100.00;102804.53;4999868;28;20177;-44
2023/01/27 07:55:28;;;;;;;0.65;0.57;;;;;;;1.82;100.00;102806.38;5004995;28;20193;-42
2023/01/27 07:57:54;;;;;;;1.98;0.70;;;;;;;1.84;100.00;102805.56;5008393;28;20247;-42
2023/01/27 08:00:20;;;;;;;1.80;0.68;;;;;;;1.83;100.00;102808.16;5000247;28;20304;-44
2023/01/27 08:02:53;;;;;;;0.70;0.70;;;;;;;1.79;100.00;102798.31;5005719;28;20287;-42
2023/01/27 08:05:19;;;;;;;0.75;0.60;;;;;;;1.74;100.00;102818.44;4999552;28;20173;-44
2023/01/27 08:07:45;;;;;;;2.17;0.70;;;;;;;1.70;100.00;102827.13;5004026;28;20197;-42
2023/01/27 08:10:11;;;;;;;1.05;0.82;;;;;;;1.69;100.00;102817.44;4997491;28;20197;-44
2023/01/27 08:12:37;;;;;;;2.67;0.73;;;;;;;1.70;100.00;102820.09;4993898;28;20216;-42
2023/01/27 08:15:04;;;;;;;3.97;0.70;;;;;;;1.63;100.00;102834.88;5000156;28;20286;-42
2023/01/27 08:17:29;;;;;;;1.27;0.93;;;;;;;1.61;100.00;102830.38;4997297;28;20190;-43
2023/01/27 08:19:55;;;;;;;0.93;0.70;;;;;;;1.57;100.00;102832.03;5004203;28;20181;-42
2023/01/27 08:22:21;;;;;;;1.23;0.80;;;;;;;1.60;100.00;102833.88;4997678;28;20694;-43
2023/01/27 08:24:48;;;;;;;2.60;0.73;;;;;;;1.60;100.00;102840.06;4999824;28;20655;-43
2023/01/27 08:27:14;;;;;;;1.00;0.70;;;;;;;1.62;100.00;102841.00;4999805;28;20691;-45
2023/01/27 08:29:40;;;;;;;0.93;0.70;;;;;;;1.64;100.00;102843.72;5001464;28;20177;-46
2023/01/27 08:32:06;;;;;;;1.70;0.70;;;;;;;1.66;100.00;102844.63;4999394;28;20725;-44
2023/01/27 08:34:32;;;;;;;1.75;1.00;;;;;;;1.62;100.00;102843.66;5000278;28;20207;-44
2023/01/27 08:36:57;;;;;;;0.82;0.80;;;;;;;1.68;100.00;102837.63;4997645;28;20212;-44
2023/01/27 08:39:23;;;;;;;0.77;0.77;;;;;;;1.68;100.00;102831.47;5003066;28;20283;-42
2023/01/27 08:41:48;;;;;;;0.70;0.70;;;;;;;1.64;100.00;102841.97;4999987;28;20209;-44
2023/01/27 08:44:14;;;;;;;4.10;0.98;;;;;;;1.65;100.00;102837.56;5002639;28;20189;-44
2023/01/27 08:46:40;;;;;;;0.80;0.80;;;;;;;1.66;100.00;102839.34;4997388;28;20216;-44
2023/01/27 08:49:05;;;;;;;2.55;0.93;;;;;;;1.69;100.00;102838.56;4999498;28;20173;-42
2023/01/27 08:51:31;;;;;;;1.77;1.05;;;;;;;1.79;100.00;102848.53;4999109;28;20177;-46
2023/01/27 08:53:57;;;;;;;3.13;1.42;;;;;;;1.76;100.00;102843.19;4993983;28;20189;-44
2023/01/27 08:56:23;;;;;;;2.25;1.10;;;;;;;1.70;100.00;102835.06;4999509;28;20204;-44
2023/01/27 08:58:51;;;;;;;1.38;0.70;;;;;;;1.67;100.00;102832.34;5004066;28;20185;-44
2023/01/27 09:01:17;;;;;;;1.13;0.90;;;;;;;1.64;100.00;102835.78;5001083;28;20205;-42
2023/01/27 09:03:43;;;;;;;2.35;0.90;;;;;;;1.69;100.00;102839.44;5008182;28;20544;-43
2023/01/27 09:06:10;;;;;;;1.10;1.05;;;;;;;1.73;100.00;102838.69;5001904;28;20187;-41
2023/01/27 09:08:36;;;;;;;1.55;0.80;;;;;;;1.74;100.00;102840.47;5003089;28;20187;-40
2023/01/27 09:11:09;;;;;;;1.15;0.82;;;;;;;1.80;100.00;102847.72;4992335;28;20273;-41
2023/01/27 09:13:35;;;;;;;3.97;1.00;;;;;;;1.75;100.00;102852.84;4998887;28;20234;-43
2023/01/27 09:16:01;;;;;;;1.10;0.90;;;;;;;1.77;100.00;102848.53;4998165;28;20201;-44
2023/01/27 09:18:27;;;;;;;0.88;0.88;;;;;;;1.79;100.00;102849.47;4998116;28;20200;-42
2023/01/27 09:20:52;;;;;;;1.13;1.05;;;;;;;1.78;100.00;102845.00;4997570;28;20596;-44
2023/01/27 09:23:18;;;;;;;2.83;1.13;;;;;;;1.77;100.00;102858.16;4998565;28;20852;-43
2023/01/27 09:25:43;;;;;;;0.93;0.82;;;;;;;1.80;100.00;102864.47;4999942;28;20218;-43
2023/01/27 09:28:15;;;;;;;1.55;1.20;;;;;;;1.87;100.00;102857.59;5004322;28;20201;-44
2023/01/27 09:30:42;;;;;;;1.60;1.05;;;;;;;1.79;100.00;102856.47;5002595;28;20272;-42
2023/01/27 09:33:08;;;;;;;3.97;0.88;;;;;;;1.73;100.00;102858.91;4993705;28;20254;-43
2023/01/27 09:35:44;;;;;;;1.20;1.00;;;;;;;1.75;100.00;102865.16;4996500;28;20177;-42
2023/01/27 09:38:15;;;;;;;3.85;1.05;;;;;;;1.82;100.00;102864.50;4996723;28;20193;-42
2023/01/27 09:40:47;;;;;;;3.03;1.17;;;;;;;1.77;100.00;102864.38;4994924;28;20677;-43
2023/01/27 09:43:19;;;;;;;3.90;0.80;;;;;;;1.73;100.00;102867.78;4997622;28;20184;-43
2023/01/27 09:46:01;;;;;;;2.38;1.10;;;;;;;1.64;100.00;102867.50;4994361;28;20181;-43
2023/01/27 09:48:39;;;;;;;1.85;0.80;;;;;;;1.70;100.00;102869.41;5000702;28;20187;-43
2023/01/27 09:51:35;;;;;;;2.42;1.02;;;;;;;1.74;100.00;102861.63;4997319;28;20224;-43
2023/01/27 09:54:06;;;;;;;2.75;1.00;;;;;;;1.69;100.00;102865.00;4997567;28;20302;-42
2023/01/27 09:56:44;;;;;;;0.80;0.70;;;;;;;1.68;100.00;102863.19;5003644;28;20406;-46
2023/01/27 09:59:21;;;;;;;3.65;1.52;;;;;;;1.75;100.00;102871.34;5001291;28;20172;-44
2023/01/27 10:02:05;;;;;;;1.67;1.00;;;;;;;1.72;100.00;102868.59;4999240;28;20197;-43
2023/01/27 10:04:48;;;;;;;1.50;1.40;;;;;;;1.77;100.00;102868.75;4999092;28;20205;-46
2023/01/27 10:07:35;;;;;;;3.25;1.40;;;;;;;1.75;100.00;102870.44;4999111;28;20209;-43
2023/01/27 10:10:14;;;;;;;1.85;1.40;;;;;;;1.67;100.00;102880.78;4996020;28;20179;-46
2023/01/27 10:12:42;;;;;;;2.00;1.15;;;;;;;1.78;100.00;102876.72;4992978;28;20184;-44
2023/01/27 10:15:48;;;;;;;2.00;1.02;;;;;;;1.79;100.00;102874.97;5003820;28;20181;-44
2023/01/27 10:18:14;;;;;;;2.13;1.20;;;;;;;1.61;100.00;102884.13;5007369;28;20686;-45
2023/01/27 10:21:20;;;;;;;2.22;1.10;;;;;;;1.50;100.00;102885.53;4993551;28;20188;-44
2023/01/27 10:23:57;;;;;;;2.45;1.05;;;;;;;1.59;100.00;102877.00;4999325;28;20189;-46
2023/01/27 10:26:40;;;;;;;3.70;1.60;;;;;;;1.61;100.00;102883.22;5001898;28;20279;-48
2023/01/27 10:29:28;;;;;;;4.70;1.40;;;;;;;1.51;100.00;102870.56;5007445;28;20189;-45
2023/01/27 10:32:03;;;;;;;2.50;1.40;;;;;;;1.54;100.00;102874.22;4996236;28;20637;-44
2023/01/27 10:35:03;;;;;;;3.85;1.20;;;;;;;1.61;100.00;102880.59;4997753;28;20196;-44
2023/01/27 10:37:46;;;;;;;6.13;1.70;;;;;;;1.72;100.00;102878.28;4999313;28;20701;-46
2023/01/27 10:40:36;;;;;;;13.77;6.30;;;;;;;1.62;100.00;102885.94;5002100;28;20195;-49
2023/01/27 10:43:08;;;;;;;2.45;1.00;;;;;;;1.61;100.00;102876.19;5000012;28;20316;-46
2023/01/27 10:45:43;;;;;;;2.42;1.05;;;;;;;1.63;100.00;102877.13;4998197;28;20275;-47
2023/01/27 10:48:18;;;;;;;2.15;1.25;;;;;;;1.52;100.00;102881.19;4998983;28;20200;-45
2023/01/27 10:51:02;;;;;;;1.70;1.38;;;;;;;1.55;100.00;102881.31;5000175;28;20200;-44
2023/01/27 10:53:46;;;;;;;1.70;1.20;;;;;;;1.53;100.00;102880.34;5001746;28;20181;-45
2023/01/27 10:56:26;;;;;;;3.55;1.67;;;;;;;1.52;100.00;102883.81;5000825;28;20283;-44
2023/01/27 10:59:05;;;;;;;2.70;1.80;;;;;;;1.56;100.00;102883.09;5003242;28;20176;-45
2023/01/27 11:01:45;;;;;;;1.55;1.42;;;;;;;1.60;100.00;102887.63;5002628;28;20848;-43
2023/01/27 11:04:17;;;;;;;3.55;1.45;;;;;;;1.72;100.00;102886.22;5001684;28;20184;-44
2023/01/27 11:06:46;;;;;;;1.95;0.90;;;;;;;1.67;100.00;102872.84;4999847;28;20706;-49
2023/01/27 11:09:33;;;;;;;2.90;1.30;;;;;;;1.70;100.00;102877.34;5009681;28;20727;-44
2023/01/27 11:12:04;;;;;;;1.85;1.10;;;;;;;1.83;100.00;102874.22;4996959;28;20187;-42
2023/01/27 11:14:46;;;;;;;1.98;1.20;;;;;;;2.01;100.00;102882.72;4997132;28;20539;-45
2023/01/27 11:17:33;;;;;;;2.03;1.00;;;;;;;1.97;100.00;102875.56;5002304;28;20208;-47
2023/01/27 11:20:22;;;;;;;2.33;0.93;;;;;;;1.95;100.00;102882.53;5001781;28;20192;-47
2023/01/27 11:23:04;;;;;;;3.25;1.20;;;;;;;1.82;100.00;102880.38;5019470;22;20231;-41
2023/01/27 11:25:32;;;;;;;3.03;0.90;;;;;;;1.51;100.00;102878.47;5031518;28;20654;-40
2023/01/27 11:28:14;;;;;;;3.22;1.10;;;;;;;1.49;100.00;102873.19;5027547;28;20573;-43
2023/01/27 11:31:21;;;;;;;1.60;0.90;;;;;;;1.39;100.00;102879.00;5016489;28;20188;-42
2023/01/27 11:34:01;;;;;;;2.60;0.80;;;;;;;1.23;99.50;102867.03;5000571;28;20214;-43
2023/01/27 11:36:27;;;;;;;1.48;1.00;;;;;;;1.20;99.08;102874.84;5024188;28;20227;-42
2023/01/27 11:38:55;;;;;;;3.70;0.80;;;;;;;1.37;99.23;102868.38;5017277;28;20172;-43
2023/01/27 11:41:21;;;;;;;3.53;1.02;;;;;;;1.37;99.42;102864.84;5020945;28;20262;-41
2023/01/27 11:43:47;;;;;;;1.27;0.75;;;;;;;1.38;99.21;102848.16;5017045;28;20193;-42
2023/01/27 11:46:22;;;;;;;2.10;0.93;;;;;;;1.46;99.24;102849.28;5016998;28;20183;-43
2023/01/27 11:48:56;;;;;;;3.50;1.13;;;;;;;1.35;99.24;102848.94;5026581;28;20311;-41
2023/01/27 11:51:24;;;;;;;3.42;1.02;;;;;;;1.46;99.01;102854.56;5016820;28;20735;-43
2023/01/27 11:54:11;;;;;;;2.40;0.93;;;;;;;1.46;99.43;102854.56;5017956;28;20192;-43
2023/01/27 11:56:38;;;;;;;1.50;0.90;;;;;;;1.34;98.90;102846.28;5023831;28;20624;-42
2023/01/27 11:59:18;;;;;;;1.67;1.25;;;;;;;1.26;98.77;102847.75;5022770;28;20216;-42
2023/01/27 12:02:22;;;;;;;2.75;1.08;;;;;;;1.28;98.54;102846.06;5021921;28;20605;-41
2023/01/27 12:05:00;;;;;;;1.05;0.80;;;;;;;1.20;98.30;102854.66;5011748;28;20691;-42